Aktualne dane pomiarowe

Uwaga, wersja testowa! Automatyczne pobieranie danych za pomocą narzędzi lub skryptów to umożliwiających jest zabronione.

Dane meteo z obszaru Polski uzyskane na podstawie depesz SYNOP pobieranych co godzinę z NWS. Najedź myszką na symbol przedstawiony w tabeli, aby uzyskać informacje co do jego znaczenia. Prosimy pamiętać, że to testowa wersja strony, która jeszcze nie jest ukończona. Stworzono również jest krótki FAQ dotyczący korzystania z tej podstrony Anomalie temperatury w chwili obecnej odniesione są do okresu referencyjnego 1951-2016. Okres ten będzie później zmieniony na 1981-2010. Kliknij ikonę aby pobrać plik CSV. Kliknij ikonę aby wygenerować mapę synoptyczną dla danego terminu.

Wybierz Datę:    

        

Mikołajki (12280)

Dane terminowe dla wybranej stacji. Kliknij datę, aby otrzymać dane z tego terminu dla wszystkich stacji.

TemperaturaZachmurzenieWiatrCiśnienieOpadyPogoda
 Data t td wb tx tn tg rh  Nt Nl Cl Cm Ch ws wd g1 g2 wx mslp ppp ch 24h 12h t ww ww w1 w2  
2019-07-12 23:00:00 13.1 12.0 12.3--- 9319.0wx-2wx--21010.2 994.9 0.2---------
2019-07-12 22:00:00 13.9 12.3 12.8--- 9020.0wx-2wx---1010.1 994.9 0.2---------
2019-07-12 21:00:00 14.6 12.5 13.1--- 8720.0wx-2wx--21010.0 994.8 0.5---------
2019-07-12 20:00:00 15.2 12.1 13.1--- 8240.0wx-1wx--11009.9 994.7 0.5---------
2019-07-12 19:00:00 16.9 11.0 13.2--- 6850.0wx-wx1wx--11009.8 994.7 0.4---------
2019-07-12 18:00:00 19.6 10.8 14.2 21.7 15.1- 5750.0wx-wx1wx--11009.2 994.3 0.0- 0.012------
2019-07-12 17:00:00 20.7 9.6 14.2--- 4940.0wx-wx2wx--21009.1 994.2 -0.4---------
2019-07-12 16:00:00 21.4 10.2 14.7--- 4935.0wxwxwxwx3wx--31009.1 994.3 -0.5---------
2019-07-12 15:00:00 21.4 10.5 14.9--- 5040.0wxwxwxwx3wx--31009.1 994.3 -0.8---------
2019-07-12 14:00:00 21.1 9.7 14.4--- 4840.0wxwxwxwx3wx--31009.5 994.6 -0.6---------
2019-07-12 13:00:00 20.8 10.3 14.5--- 5130.0wxwxwxwx2wx--21009.7 994.8 -0.4---------
2019-07-12 12:00:00 19.8 10.5 14.2--- 5530.0wxwxwxwxwx3wx--31010.0 995.1 -0.1- 0.06------
2019-07-12 11:00:00 19.6 10.0 13.9--- 5440.0wxwxwxwx3wx--31010.1 995.2 0.0---------
2019-07-12 10:00:00 18.9 10.2 13.7--- 5735.0wxwxwxwxwx3wx--31010.2 995.2 0.1---------
2019-07-12 09:00:00 17.9 11.0 13.6--- 6435.0wxwxwxwx3wx--31010.2 995.2 0.3---------
2019-07-12 08:00:00 17.1 11.1 13.3--- 6835.0wxwxwxwxwx3wx--31010.3 995.2 0.5---------
2019-07-12 07:00:00 16.5 12.1 13.6--- 7530.0wxwxwxwx3wx--31010.2 995.1 0.5---------
2019-07-12 06:00:00 15.4 11.8 13.0 17.5 13.2 11 7935.0wxwxwx3wx--31010.1 994.9 0.5--12----- 4.2
2019-07-12 05:00:00 15.0 11.8 12.9--- 8135.0wxwxwxwx4wx---1009.9 994.7 0.3---------
2019-07-12 04:00:00 14.5 12.9 13.4--- 9030.0wxwxwxwx3wx--31009.8 994.6 0.2---------
2019-07-12 03:00:00 13.9 11.8 12.5--- 8740.0wxwxwxwx3wx--31009.6 994.4 -0.1---------
2019-07-12 02:00:00 13.9 11.1 12.0--- 8345.0wxwxwxwx3wx--31009.6 994.4 -0.5---------
2019-07-12 01:00:00 14.1 10.5 11.7--- 7950.0wxwxwxwx3wx--31009.6 994.4 -0.7---------
2019-07-12 00:00:00 13.8 10.4 11.6--- 8050.0wxwxwx2wx--21009.7 994.5 -0.7--6wx---
2019-07-11 23:00:00 13.7 9.5 11.0--- 7650.0wx-wxwx2wx--21010.2 994.9 -0.4---------
2019-07-11 22:00:00 13.4 9.3 10.8--- 7650.0wx-wxwx2wx--21010.4 995.1 -0.1---------
2019-07-11 21:00:00 13.6 9.2 10.8--- 7550.0wx-wxwx2wx--21010.5 995.2 0.3---------
2019-07-11 20:00:00 14.1 9.1 11.0--- 7230.0wx-wxwx2wx--21010.5 995.3 0.6---------
2019-07-11 19:00:00 15.5 8.7 11.4--- 6450.0wx-wxwx2wx--21010.4 995.2 0.4---------
2019-07-11 18:00:00 17.5 10.1 13.0 21.2 14.7- 6250.0wxwxwxwx3wx-831009.9 994.9 0.2- 0.012------
2019-07-11 17:00:00 18.7 9.7 13.3--- 5645.0wxwxwxwx3wx--31009.7 994.7 0.0---------
2019-07-11 16:00:00 18.4 10.7 13.7--- 6140.0wxwxwxwx2wx--21009.8 994.8 -0.1---------
2019-07-11 15:00:00 19.7 8.4 13.2--- 4845.0wxwxwxwx3wx8831009.6 994.7 -0.5---------
2019-07-11 14:00:00 19.3 8.9 13.2--- 5140.0wxwxwx3wx--31009.7 994.7 -0.7---------
2019-07-11 13:00:00 19.5 9.1 13.4--- 5135.0wxwxwx3wx--31009.8 994.9 -0.7---------
2019-07-11 12:00:00 18.3 9.9 13.2--- 5840.0wxwxwx2wx--21010.2 995.2 -0.6- 0.06------
2019-07-11 11:00:00 17.6 10.5 13.2--- 6345.0wxwxwx4wx--41010.5 995.4 -0.2---------
2019-07-11 10:00:00 17.7 10.1 13.1--- 6130.0wxwxwxwx3wx--31010.6 995.6 0.2---------
2019-07-11 09:00:00 16.6 11.7 13.4--- 7330.0wxwxwxwx3wx--31010.9 995.8 0.8---------
2019-07-11 08:00:00 15.7 11.7 13.1--- 7730.0wxwxwxwx3wx--31010.8 995.6 0.7---------
2019-07-11 07:00:00 14.9 11.7 12.8--- 8127.0wxwxwxwx4wx---1010.6 995.4 0.7---------
2019-07-11 06:00:00 14.7 11.8 12.7 14.7 12.3 12 8335.0wxwxwxwx4wx--41010.2 995.0 0.5--12wx-w1- 0.9
2019-07-11 05:00:00 13.2 11.6 12.1--- 9028.0wxwxwx3wx--31010.2 994.9 0.5---------
2019-07-11 04:00:00 12.7 11.6 11.9--- 9320.0wxwxwx3wx--31010.0 994.7 0.1---wx---
2019-07-11 03:00:00 12.5 11.7 11.9--- 9520.0wxwxwx3wx--31009.8 994.5 -0.1---------
2019-07-11 02:00:00 12.4 11.3 11.6--- 9323.0wxwxwx4wx--41009.7 994.4 -0.2---------
2019-07-11 01:00:00 12.5 11.1 11.5--- 9123.0wxwxwx3wx--31009.9 994.6 -0.3---------
2019-07-11 00:00:00 12.7 11.3 11.7--- 9130.0wxwxwx3wx-931009.9 994.6 -0.3- 0.06------
1.7 ms

 

Print Friendly, PDF & Email